sensor_id;sensor_type;location;lat;lon;timestamp;temperature;humidity
32877;DHT22;19226;51.600;8.034;2023-06-22T00:01:52;22.40;99.90
32877;DHT22;19226;51.600;8.034;2023-06-22T00:04:36;22.40;99.90
32877;DHT22;19226;51.600;8.034;2023-06-22T00:07:21;22.40;99.90
32877;DHT22;19226;51.600;8.034;2023-06-22T00:10:06;22.40;99.90
32877;DHT22;19226;51.600;8.034;2023-06-22T00:12:50;22.40;99.90
32877;DHT22;19226;51.600;8.034;2023-06-22T00:15:36;22.30;99.90
32877;DHT22;19226;51.600;8.034;2023-06-22T00:18:20;22.30;99.90
32877;DHT22;19226;51.600;8.034;2023-06-22T00:21:05;22.30;99.90
32877;DHT22;19226;51.600;8.034;2023-06-22T00:23:50;22.30;99.90
32877;DHT22;19226;51.600;8.034;2023-06-22T00:26:34;22.30;99.90
32877;DHT22;19226;51.600;8.034;2023-06-22T00:29:19;22.20;99.90
32877;DHT22;19226;51.600;8.034;2023-06-22T00:32:04;22.20;99.90
32877;DHT22;19226;51.600;8.034;2023-06-22T00:34:48;22.20;99.90
32877;DHT22;19226;51.600;8.034;2023-06-22T00:37:34;22.20;99.90
32877;DHT22;19226;51.600;8.034;2023-06-22T00:40:19;22.20;99.90
32877;DHT22;19226;51.600;8.034;2023-06-22T00:43:06;22.20;99.90
32877;DHT22;19226;51.600;8.034;2023-06-22T00:45:50;22.20;99.90
32877;DHT22;19226;51.600;8.034;2023-06-22T00:48:35;22.20;99.90
32877;DHT22;19226;51.600;8.034;2023-06-22T00:51:20;22.20;99.90
32877;DHT22;19226;51.600;8.034;2023-06-22T00:54:09;22.20;99.90
32877;DHT22;19226;51.600;8.034;2023-06-22T00:56:55;22.20;99.90
32877;DHT22;19226;51.600;8.034;2023-06-22T00:59:45;22.20;99.90
32877;DHT22;19226;51.600;8.034;2023-06-22T01:02:29;22.10;99.90
32877;DHT22;19226;51.600;8.034;2023-06-22T01:05:14;21.90;99.90
32877;DHT22;19226;51.600;8.034;2023-06-22T01:11:08;21.90;99.90
32877;DHT22;19226;51.600;8.034;2023-06-22T01:14:03;21.90;99.90
32877;DHT22;19226;51.600;8.034;2023-06-22T01:16:48;21.90;99.90
32877;DHT22;19226;51.600;8.034;2023-06-22T01:19:46;21.80;99.90
32877;DHT22;19226;51.600;8.034;2023-06-22T01:23:10;21.80;99.90
32877;DHT22;19226;51.600;8.034;2023-06-22T01:26:05;21.80;99.90
32877;DHT22;19226;51.600;8.034;2023-06-22T01:28:56;21.70;99.90
32877;DHT22;19226;51.600;8.034;2023-06-22T01:31:42;21.70;99.90
32877;DHT22;19226;51.600;8.034;2023-06-22T01:34:31;21.70;99.90
32877;DHT22;19226;51.600;8.034;2023-06-22T01:37:16;21.70;99.90
32877;DHT22;19226;51.600;8.034;2023-06-22T01:40:01;21.70;99.90
32877;DHT22;19226;51.600;8.034;2023-06-22T01:42:48;21.70;99.90
32877;DHT22;19226;51.600;8.034;2023-06-22T01:45:32;21.70;99.90
32877;DHT22;19226;51.600;8.034;2023-06-22T01:48:17;21.70;99.90
32877;DHT22;19226;51.600;8.034;2023-06-22T01:51:03;21.70;99.90
32877;DHT22;19226;51.600;8.034;2023-06-22T01:53:47;21.70;99.90
32877;DHT22;19226;51.600;8.034;2023-06-22T01:56:32;21.70;99.90
32877;DHT22;19226;51.600;8.034;2023-06-22T01:59:31;21.70;99.90
32877;DHT22;19226;51.600;8.034;2023-06-22T02:02:19;21.70;99.90
32877;DHT22;19226;51.600;8.034;2023-06-22T02:05:09;21.70;99.90
32877;DHT22;19226;51.600;8.034;2023-06-22T02:08:02;21.60;99.90
32877;DHT22;19226;51.600;8.034;2023-06-22T02:10:50;21.70;99.90
32877;DHT22;19226;51.600;8.034;2023-06-22T02:13:36;21.60;99.90
32877;DHT22;19226;51.600;8.034;2023-06-22T02:16:22;21.50;99.90
32877;DHT22;19226;51.600;8.034;2023-06-22T02:19:06;21.50;99.90
32877;DHT22;19226;51.600;8.034;2023-06-22T02:21:51;21.50;99.90
32877;DHT22;19226;51.600;8.034;2023-06-22T02:24:38;21.40;99.90
32877;DHT22;19226;51.600;8.034;2023-06-22T02:27:23;21.30;99.90
32877;DHT22;19226;51.600;8.034;2023-06-22T02:30:08;21.20;99.90
32877;DHT22;19226;51.600;8.034;2023-06-22T02:32:53;21.30;99.90
32877;DHT22;19226;51.600;8.034;2023-06-22T02:35:43;21.30;99.90
32877;DHT22;19226;51.600;8.034;2023-06-22T02:38:29;21.30;99.90
32877;DHT22;19226;51.600;8.034;2023-06-22T02:41:18;21.20;99.90
32877;DHT22;19226;51.600;8.034;2023-06-22T02:44:03;21.20;99.90
32877;DHT22;19226;51.600;8.034;2023-06-22T02:46:48;21.10;99.90
32877;DHT22;19226;51.600;8.034;2023-06-22T02:49:34;21.20;99.90
32877;DHT22;19226;51.600;8.034;2023-06-22T02:52:19;21.20;99.90
32877;DHT22;19226;51.600;8.034;2023-06-22T02:55:04;21.20;99.90
32877;DHT22;19226;51.600;8.034;2023-06-22T02:57:49;21.10;99.90
32877;DHT22;19226;51.600;8.034;2023-06-22T03:00:36;21.10;99.90
32877;DHT22;19226;51.600;8.034;2023-06-22T03:03:21;21.10;99.90
32877;DHT22;19226;51.600;8.034;2023-06-22T03:06:06;21.20;99.90
32877;DHT22;19226;51.600;8.034;2023-06-22T03:08:50;21.20;99.90
32877;DHT22;19226;51.600;8.034;2023-06-22T03:11:35;21.10;99.90
32877;DHT22;19226;51.600;8.034;2023-06-22T03:14:20;21.10;99.90
32877;DHT22;19226;51.600;8.034;2023-06-22T03:17:06;21.10;99.90
32877;DHT22;19226;51.600;8.034;2023-06-22T03:19:51;21.10;99.90
32877;DHT22;19226;51.600;8.034;2023-06-22T03:22:37;21.10;99.90
32877;DHT22;19226;51.600;8.034;2023-06-22T03:25:21;21.20;99.90
32877;DHT22;19226;51.600;8.034;2023-06-22T03:28:07;21.10;99.90
32877;DHT22;19226;51.600;8.034;2023-06-22T03:30:52;21.10;99.90
32877;DHT22;19226;51.600;8.034;2023-06-22T03:33:36;21.10;99.90
32877;DHT22;19226;51.600;8.034;2023-06-22T03:36:21;21.10;99.90
32877;DHT22;19226;51.600;8.034;2023-06-22T03:39:06;21.10;99.90
32877;DHT22;19226;51.600;8.034;2023-06-22T03:41:51;21.10;99.90
32877;DHT22;19226;51.600;8.034;2023-06-22T03:44:36;21.10;99.90
32877;DHT22;19226;51.600;8.034;2023-06-22T03:47:23;21.10;99.90
32877;DHT22;19226;51.600;8.034;2023-06-22T03:50:08;21.10;99.90
32877;DHT22;19226;51.600;8.034;2023-06-22T03:52:52;21.10;99.90
32877;DHT22;19226;51.600;8.034;2023-06-22T03:55:37;21.20;99.90
32877;DHT22;19226;51.600;8.034;2023-06-22T03:58:22;21.10;99.90
32877;DHT22;19226;51.600;8.034;2023-06-22T04:01:07;21.10;99.90
32877;DHT22;19226;51.600;8.034;2023-06-22T04:03:55;21.20;99.90
32877;DHT22;19226;51.600;8.034;2023-06-22T04:06:40;21.20;99.90
32877;DHT22;19226;51.600;8.034;2023-06-22T04:09:24;21.10;99.90
32877;DHT22;19226;51.600;8.034;2023-06-22T04:12:09;21.10;99.90
32877;DHT22;19226;51.600;8.034;2023-06-22T04:14:53;21.20;99.90
32877;DHT22;19226;51.600;8.034;2023-06-22T04:17:38;21.20;99.90
32877;DHT22;19226;51.600;8.034;2023-06-22T04:20:23;21.20;99.90
32877;DHT22;19226;51.600;8.034;2023-06-22T04:23:12;21.20;99.90
32877;DHT22;19226;51.600;8.034;2023-06-22T04:25:56;21.20;99.90
32877;DHT22;19226;51.600;8.034;2023-06-22T04:28:42;21.20;99.90
32877;DHT22;19226;51.600;8.034;2023-06-22T04:31:26;21.20;99.90
32877;DHT22;19226;51.600;8.034;2023-06-22T04:34:16;21.30;99.90
32877;DHT22;19226;51.600;8.034;2023-06-22T04:37:01;21.30;99.90
32877;DHT22;19226;51.600;8.034;2023-06-22T04:39:45;21.30;99.90
32877;DHT22;19226;51.600;8.034;2023-06-22T04:42:30;21.30;99.90
32877;DHT22;19226;51.600;8.034;2023-06-22T04:45:14;21.30;99.90
32877;DHT22;19226;51.600;8.034;2023-06-22T04:47:59;21.30;99.90
32877;DHT22;19226;51.600;8.034;2023-06-22T04:50:43;21.20;99.90
32877;DHT22;19226;51.600;8.034;2023-06-22T04:53:28;21.20;99.90
32877;DHT22;19226;51.600;8.034;2023-06-22T04:56:13;21.30;99.90
32877;DHT22;19226;51.600;8.034;2023-06-22T04:59:00;21.30;99.90
32877;DHT22;19226;51.600;8.034;2023-06-22T05:01:45;21.40;99.90
32877;DHT22;19226;51.600;8.034;2023-06-22T05:04:30;21.40;99.90
32877;DHT22;19226;51.600;8.034;2023-06-22T05:07:17;21.40;99.90
32877;DHT22;19226;51.600;8.034;2023-06-22T05:10:02;21.40;99.90
32877;DHT22;19226;51.600;8.034;2023-06-22T05:12:47;21.40;99.90
32877;DHT22;19226;51.600;8.034;2023-06-22T05:15:31;21.40;99.90
32877;DHT22;19226;51.600;8.034;2023-06-22T05:18:20;21.40;99.90
32877;DHT22;19226;51.600;8.034;2023-06-22T05:21:07;21.50;99.90
32877;DHT22;19226;51.600;8.034;2023-06-22T05:23:53;21.40;99.90
32877;DHT22;19226;51.600;8.034;2023-06-22T05:26:37;21.40;99.90
32877;DHT22;19226;51.600;8.034;2023-06-22T05:29:22;21.30;99.90
32877;DHT22;19226;51.600;8.034;2023-06-22T05:32:07;21.30;99.90
32877;DHT22;19226;51.600;8.034;2023-06-22T05:34:51;21.30;99.90
32877;DHT22;19226;51.600;8.034;2023-06-22T05:37:36;21.20;99.90
32877;DHT22;19226;51.600;8.034;2023-06-22T05:40:21;21.20;99.90
32877;DHT22;19226;51.600;8.034;2023-06-22T05:43:05;21.20;99.90
32877;DHT22;19226;51.600;8.034;2023-06-22T05:45:50;21.20;99.90
32877;DHT22;19226;51.600;8.034;2023-06-22T05:48:34;21.20;99.90
32877;DHT22;19226;51.600;8.034;2023-06-22T05:51:19;21.20;99.90
32877;DHT22;19226;51.600;8.034;2023-06-22T05:54:03;21.10;99.90
32877;DHT22;19226;51.600;8.034;2023-06-22T05:56:48;21.10;99.90
32877;DHT22;19226;51.600;8.034;2023-06-22T05:59:33;21.00;99.90
32877;DHT22;19226;51.600;8.034;2023-06-22T06:02:17;21.00;99.90
32877;DHT22;19226;51.600;8.034;2023-06-22T06:05:02;21.10;99.90
32877;DHT22;19226;51.600;8.034;2023-06-22T06:07:47;21.10;99.90
32877;DHT22;19226;51.600;8.034;2023-06-22T06:10:32;21.10;99.90
32877;DHT22;19226;51.600;8.034;2023-06-22T06:13:17;21.10;99.90
32877;DHT22;19226;51.600;8.034;2023-06-22T06:16:01;21.10;99.90
32877;DHT22;19226;51.600;8.034;2023-06-22T06:18:46;21.20;99.90
32877;DHT22;19226;51.600;8.034;2023-06-22T06:21:32;21.20;99.90
32877;DHT22;19226;51.600;8.034;2023-06-22T06:24:17;21.20;99.90
32877;DHT22;19226;51.600;8.034;2023-06-22T06:27:01;21.20;99.90
32877;DHT22;19226;51.600;8.034;2023-06-22T06:29:49;21.20;99.90
32877;DHT22;19226;51.600;8.034;2023-06-22T06:32:33;21.10;99.90
32877;DHT22;19226;51.600;8.034;2023-06-22T06:35:17;21.10;99.90
32877;DHT22;19226;51.600;8.034;2023-06-22T06:38:02;21.10;99.90
32877;DHT22;19226;51.600;8.034;2023-06-22T06:40:47;21.10;99.90
32877;DHT22;19226;51.600;8.034;2023-06-22T06:43:33;21.10;99.90
32877;DHT22;19226;51.600;8.034;2023-06-22T06:46:17;21.10;99.90
32877;DHT22;19226;51.600;8.034;2023-06-22T06:49:03;21.10;99.90
32877;DHT22;19226;51.600;8.034;2023-06-22T06:51:47;21.20;99.90
32877;DHT22;19226;51.600;8.034;2023-06-22T06:54:32;21.20;99.90
32877;DHT22;19226;51.600;8.034;2023-06-22T06:57:16;21.20;99.90
32877;DHT22;19226;51.600;8.034;2023-06-22T07:00:01;21.30;99.90
32877;DHT22;19226;51.600;8.034;2023-06-22T07:02:46;21.30;99.90
32877;DHT22;19226;51.600;8.034;2023-06-22T07:05:32;21.40;99.90
32877;DHT22;19226;51.600;8.034;2023-06-22T07:08:17;21.40;99.90
32877;DHT22;19226;51.600;8.034;2023-06-22T07:11:02;21.50;99.90
32877;DHT22;19226;51.600;8.034;2023-06-22T07:13:46;21.50;99.90
32877;DHT22;19226;51.600;8.034;2023-06-22T07:16:30;21.60;99.90
32877;DHT22;19226;51.600;8.034;2023-06-22T07:19:16;21.60;99.90
32877;DHT22;19226;51.600;8.034;2023-06-22T07:22:00;21.60;99.90
32877;DHT22;19226;51.600;8.034;2023-06-22T07:24:45;21.70;99.90
32877;DHT22;19226;51.600;8.034;2023-06-22T07:27:30;21.80;99.90
32877;DHT22;19226;51.600;8.034;2023-06-22T07:30:19;21.80;99.90
32877;DHT22;19226;51.600;8.034;2023-06-22T07:33:03;21.80;99.90
32877;DHT22;19226;51.600;8.034;2023-06-22T07:35:51;21.90;99.90
32877;DHT22;19226;51.600;8.034;2023-06-22T07:38:36;22.00;99.90
32877;DHT22;19226;51.600;8.034;2023-06-22T07:41:21;22.00;99.90
32877;DHT22;19226;51.600;8.034;2023-06-22T07:44:06;22.10;99.90
32877;DHT22;19226;51.600;8.034;2023-06-22T07:46:50;22.20;99.90
32877;DHT22;19226;51.600;8.034;2023-06-22T07:49:35;22.20;99.90
32877;DHT22;19226;51.600;8.034;2023-06-22T07:52:23;22.20;99.90
32877;DHT22;19226;51.600;8.034;2023-06-22T07:55:07;22.30;99.90
32877;DHT22;19226;51.600;8.034;2023-06-22T07:57:52;22.40;99.90
32877;DHT22;19226;51.600;8.034;2023-06-22T08:00:37;22.50;99.90
32877;DHT22;19226;51.600;8.034;2023-06-22T08:03:21;22.60;99.90
32877;DHT22;19226;51.600;8.034;2023-06-22T08:06:08;22.70;99.90
32877;DHT22;19226;51.600;8.034;2023-06-22T08:09:12;22.90;99.90
32877;DHT22;19226;51.600;8.034;2023-06-22T08:12:03;23.20;99.90
32877;DHT22;19226;51.600;8.034;2023-06-22T08:14:48;23.30;99.90
32877;DHT22;19226;51.600;8.034;2023-06-22T08:17:32;23.50;99.90
32877;DHT22;19226;51.600;8.034;2023-06-22T08:20:17;23.70;99.90
32877;DHT22;19226;51.600;8.034;2023-06-22T08:23:01;23.90;99.90
32877;DHT22;19226;51.600;8.034;2023-06-22T08:25:50;24.00;99.90
32877;DHT22;19226;51.600;8.034;2023-06-22T08:28:35;24.20;99.90
32877;DHT22;19226;51.600;8.034;2023-06-22T08:31:20;24.40;99.90
32877;DHT22;19226;51.600;8.034;2023-06-22T08:34:05;24.50;99.90
32877;DHT22;19226;51.600;8.034;2023-06-22T08:36:49;24.70;99.90
32877;DHT22;19226;51.600;8.034;2023-06-22T08:39:35;24.90;99.90
32877;DHT22;19226;51.600;8.034;2023-06-22T08:42:20;25.00;99.90
32877;DHT22;19226;51.600;8.034;2023-06-22T08:45:05;25.10;99.90
32877;DHT22;19226;51.600;8.034;2023-06-22T08:47:50;25.20;99.90
32877;DHT22;19226;51.600;8.034;2023-06-22T08:50:34;25.30;99.90
32877;DHT22;19226;51.600;8.034;2023-06-22T08:53:19;25.50;99.90
32877;DHT22;19226;51.600;8.034;2023-06-22T08:56:04;25.60;99.90
32877;DHT22;19226;51.600;8.034;2023-06-22T08:58:48;25.70;99.90
32877;DHT22;19226;51.600;8.034;2023-06-22T09:01:33;25.90;99.90
32877;DHT22;19226;51.600;8.034;2023-06-22T09:04:17;26.10;99.90
32877;DHT22;19226;51.600;8.034;2023-06-22T09:07:03;26.20;99.90
32877;DHT22;19226;51.600;8.034;2023-06-22T09:09:48;26.50;99.90
32877;DHT22;19226;51.600;8.034;2023-06-22T09:12:33;26.70;99.90
32877;DHT22;19226;51.600;8.034;2023-06-22T09:15:18;26.80;99.90
32877;DHT22;19226;51.600;8.034;2023-06-22T09:18:02;26.90;99.90
32877;DHT22;19226;51.600;8.034;2023-06-22T09:20:47;27.00;99.90
32877;DHT22;19226;51.600;8.034;2023-06-22T09:23:32;27.10;99.90
32877;DHT22;19226;51.600;8.034;2023-06-22T09:26:17;27.20;99.90
32877;DHT22;19226;51.600;8.034;2023-06-22T09:29:05;27.30;99.90
32877;DHT22;19226;51.600;8.034;2023-06-22T09:31:50;27.40;99.90
32877;DHT22;19226;51.600;8.034;2023-06-22T09:34:34;27.50;99.90
32877;DHT22;19226;51.600;8.034;2023-06-22T09:37:19;27.70;99.90
32877;DHT22;19226;51.600;8.034;2023-06-22T09:40:04;27.80;99.90
32877;DHT22;19226;51.600;8.034;2023-06-22T09:42:56;27.90;99.90
32877;DHT22;19226;51.600;8.034;2023-06-22T09:45:41;27.90;99.90
32877;DHT22;19226;51.600;8.034;2023-06-22T09:48:25;28.10;99.90
32877;DHT22;19226;51.600;8.034;2023-06-22T09:51:12;28.10;99.90
32877;DHT22;19226;51.600;8.034;2023-06-22T09:53:56;28.40;99.90
32877;DHT22;19226;51.600;8.034;2023-06-22T09:56:41;28.50;99.90
32877;DHT22;19226;51.600;8.034;2023-06-22T09:59:25;28.60;99.90
32877;DHT22;19226;51.600;8.034;2023-06-22T10:02:15;28.70;99.90
32877;DHT22;19226;51.600;8.034;2023-06-22T10:05:03;28.60;99.90
32877;DHT22;19226;51.600;8.034;2023-06-22T10:07:49;28.60;99.90
32877;DHT22;19226;51.600;8.034;2023-06-22T10:10:34;28.70;99.90
32877;DHT22;19226;51.600;8.034;2023-06-22T10:13:19;28.80;99.90
32877;DHT22;19226;51.600;8.034;2023-06-22T10:16:07;28.90;99.90
32877;DHT22;19226;51.600;8.034;2023-06-22T10:18:54;28.90;99.90
32877;DHT22;19226;51.600;8.034;2023-06-22T10:21:41;28.80;99.90
32877;DHT22;19226;51.600;8.034;2023-06-22T10:24:26;28.90;99.90
32877;DHT22;19226;51.600;8.034;2023-06-22T10:27:11;28.90;99.90
32877;DHT22;19226;51.600;8.034;2023-06-22T10:29:58;28.90;99.90
32877;DHT22;19226;51.600;8.034;2023-06-22T10:32:43;28.90;99.90
32877;DHT22;19226;51.600;8.034;2023-06-22T10:35:34;28.80;99.90
32877;DHT22;19226;51.600;8.034;2023-06-22T10:38:25;28.70;99.90
32877;DHT22;19226;51.600;8.034;2023-06-22T10:41:09;28.70;99.90
32877;DHT22;19226;51.600;8.034;2023-06-22T10:43:54;28.70;99.90
32877;DHT22;19226;51.600;8.034;2023-06-22T10:46:38;28.60;99.90
32877;DHT22;19226;51.600;8.034;2023-06-22T10:49:23;28.60;99.90
32877;DHT22;19226;51.600;8.034;2023-06-22T10:52:08;28.50;99.90
32877;DHT22;19226;51.600;8.034;2023-06-22T10:54:52;28.50;99.90
32877;DHT22;19226;51.600;8.034;2023-06-22T10:57:37;28.50;99.90
32877;DHT22;19226;51.600;8.034;2023-06-22T11:00:26;28.60;99.90
32877;DHT22;19226;51.600;8.034;2023-06-22T11:03:10;28.60;99.90
32877;DHT22;19226;51.600;8.034;2023-06-22T11:05:55;28.60;99.90
32877;DHT22;19226;51.600;8.034;2023-06-22T11:08:39;28.50;99.90
32877;DHT22;19226;51.600;8.034;2023-06-22T11:11:25;28.50;99.90
32877;DHT22;19226;51.600;8.034;2023-06-22T11:14:10;28.50;99.90
32877;DHT22;19226;51.600;8.034;2023-06-22T11:16:54;28.50;99.90
32877;DHT22;19226;51.600;8.034;2023-06-22T11:19:39;28.50;99.90
32877;DHT22;19226;51.600;8.034;2023-06-22T11:22:23;28.40;99.90
32877;DHT22;19226;51.600;8.034;2023-06-22T11:25:08;28.40;99.90
32877;DHT22;19226;51.600;8.034;2023-06-22T11:27:53;28.50;99.90
32877;DHT22;19226;51.600;8.034;2023-06-22T11:30:38;28.50;99.90
32877;DHT22;19226;51.600;8.034;2023-06-22T11:33:22;28.50;99.90
32877;DHT22;19226;51.600;8.034;2023-06-22T11:36:07;28.50;99.90
32877;DHT22;19226;51.600;8.034;2023-06-22T11:38:52;28.50;99.90
32877;DHT22;19226;51.600;8.034;2023-06-22T11:41:36;28.50;99.90
32877;DHT22;19226;51.600;8.034;2023-06-22T11:44:21;28.50;99.90
32877;DHT22;19226;51.600;8.034;2023-06-22T11:47:05;28.50;99.90
32877;DHT22;19226;51.600;8.034;2023-06-22T11:49:50;28.40;99.90
32877;DHT22;19226;51.600;8.034;2023-06-22T11:52:34;28.40;99.90
32877;DHT22;19226;51.600;8.034;2023-06-22T11:55:22;28.30;99.90
32877;DHT22;19226;51.600;8.034;2023-06-22T11:58:06;28.30;99.90
32877;DHT22;19226;51.600;8.034;2023-06-22T12:00:53;28.30;99.90
32877;DHT22;19226;51.600;8.034;2023-06-22T12:03:37;28.30;99.90
32877;DHT22;19226;51.600;8.034;2023-06-22T12:06:22;28.20;99.90
32877;DHT22;19226;51.600;8.034;2023-06-22T12:09:06;28.20;99.90
32877;DHT22;19226;51.600;8.034;2023-06-22T12:11:51;28.10;99.90
32877;DHT22;19226;51.600;8.034;2023-06-22T12:14:35;28.00;99.90
32877;DHT22;19226;51.600;8.034;2023-06-22T12:17:20;27.90;99.90
32877;DHT22;19226;51.600;8.034;2023-06-22T12:20:06;27.70;99.90
32877;DHT22;19226;51.600;8.034;2023-06-22T12:22:50;27.70;99.90
32877;DHT22;19226;51.600;8.034;2023-06-22T12:25:36;27.60;99.90
32877;DHT22;19226;51.600;8.034;2023-06-22T12:28:21;27.50;99.90
32877;DHT22;19226;51.600;8.034;2023-06-22T12:31:07;27.40;99.90
32877;DHT22;19226;51.600;8.034;2023-06-22T12:33:52;27.40;99.90
32877;DHT22;19226;51.600;8.034;2023-06-22T12:36:36;27.30;99.90
32877;DHT22;19226;51.600;8.034;2023-06-22T12:39:21;27.30;99.90
32877;DHT22;19226;51.600;8.034;2023-06-22T12:42:05;27.20;99.90
32877;DHT22;19226;51.600;8.034;2023-06-22T12:44:53;27.00;99.90
32877;DHT22;19226;51.600;8.034;2023-06-22T12:47:37;27.00;99.90
32877;DHT22;19226;51.600;8.034;2023-06-22T12:50:22;26.90;99.90
32877;DHT22;19226;51.600;8.034;2023-06-22T12:53:06;26.70;99.90
32877;DHT22;19226;51.600;8.034;2023-06-22T12:55:51;26.60;99.90
32877;DHT22;19226;51.600;8.034;2023-06-22T12:58:35;26.50;99.90
32877;DHT22;19226;51.600;8.034;2023-06-22T13:01:20;26.30;99.90
32877;DHT22;19226;51.600;8.034;2023-06-22T13:04:04;26.20;99.90
32877;DHT22;19226;51.600;8.034;2023-06-22T13:06:49;26.10;99.90
32877;DHT22;19226;51.600;8.034;2023-06-22T13:09:36;26.00;99.90
32877;DHT22;19226;51.600;8.034;2023-06-22T13:12:20;25.70;99.90
32877;DHT22;19226;51.600;8.034;2023-06-22T13:15:06;25.50;99.90
32877;DHT22;19226;51.600;8.034;2023-06-22T13:17:50;25.00;99.90
32877;DHT22;19226;51.600;8.034;2023-06-22T13:20:35;24.60;99.90
32877;DHT22;19226;51.600;8.034;2023-06-22T13:23:21;24.50;99.90
32877;DHT22;19226;51.600;8.034;2023-06-22T13:26:05;24.40;99.90
32877;DHT22;19226;51.600;8.034;2023-06-22T13:28:50;24.20;99.90
32877;DHT22;19226;51.600;8.034;2023-06-22T13:31:34;24.10;99.90
32877;DHT22;19226;51.600;8.034;2023-06-22T13:34:19;24.10;99.90
32877;DHT22;19226;51.600;8.034;2023-06-22T13:37:04;24.00;99.90
32877;DHT22;19226;51.600;8.034;2023-06-22T13:39:48;23.90;99.90
32877;DHT22;19226;51.600;8.034;2023-06-22T13:42:33;23.80;99.90
32877;DHT22;19226;51.600;8.034;2023-06-22T13:45:17;23.60;99.90
32877;DHT22;19226;51.600;8.034;2023-06-22T13:48:03;23.60;99.90
32877;DHT22;19226;51.600;8.034;2023-06-22T13:50:47;23.50;99.90
32877;DHT22;19226;51.600;8.034;2023-06-22T13:53:32;23.40;99.90
32877;DHT22;19226;51.600;8.034;2023-06-22T13:56:17;23.40;99.90
32877;DHT22;19226;51.600;8.034;2023-06-22T13:59:01;23.40;99.90
32877;DHT22;19226;51.600;8.034;2023-06-22T14:01:45;23.50;99.90
32877;DHT22;19226;51.600;8.034;2023-06-22T14:04:30;23.50;99.90
32877;DHT22;19226;51.600;8.034;2023-06-22T14:07:15;23.50;99.90
32877;DHT22;19226;51.600;8.034;2023-06-22T14:10:00;23.60;99.90
32877;DHT22;19226;51.600;8.034;2023-06-22T14:12:45;23.70;99.90
32877;DHT22;19226;51.600;8.034;2023-06-22T14:15:29;23.90;99.90
32877;DHT22;19226;51.600;8.034;2023-06-22T14:18:14;24.00;99.90
32877;DHT22;19226;51.600;8.034;2023-06-22T14:20:59;24.20;99.90
32877;DHT22;19226;51.600;8.034;2023-06-22T14:23:44;24.30;99.90
32877;DHT22;19226;51.600;8.034;2023-06-22T14:26:33;24.50;99.90
32877;DHT22;19226;51.600;8.034;2023-06-22T14:29:17;24.70;99.90
32877;DHT22;19226;51.600;8.034;2023-06-22T14:32:02;24.70;99.90
32877;DHT22;19226;51.600;8.034;2023-06-22T14:34:46;24.80;99.90
32877;DHT22;19226;51.600;8.034;2023-06-22T14:37:31;24.80;99.90
32877;DHT22;19226;51.600;8.034;2023-06-22T14:40:16;25.00;99.90
32877;DHT22;19226;51.600;8.034;2023-06-22T14:43:00;25.10;99.90
32877;DHT22;19226;51.600;8.034;2023-06-22T14:45:44;25.30;99.90
32877;DHT22;19226;51.600;8.034;2023-06-22T14:48:29;25.50;99.90
32877;DHT22;19226;51.600;8.034;2023-06-22T14:51:14;25.50;99.90
32877;DHT22;19226;51.600;8.034;2023-06-22T14:53:59;25.60;99.90
32877;DHT22;19226;51.600;8.034;2023-06-22T14:56:43;25.60;99.90
32877;DHT22;19226;51.600;8.034;2023-06-22T14:59:28;25.70;99.90
32877;DHT22;19226;51.600;8.034;2023-06-22T15:02:13;25.70;99.90
32877;DHT22;19226;51.600;8.034;2023-06-22T15:04:57;25.70;99.90
32877;DHT22;19226;51.600;8.034;2023-06-22T15:07:42;25.60;99.90
32877;DHT22;19226;51.600;8.034;2023-06-22T15:10:27;25.60;99.90
32877;DHT22;19226;51.600;8.034;2023-06-22T15:13:11;25.60;99.90
32877;DHT22;19226;51.600;8.034;2023-06-22T15:15:56;25.70;99.90
32877;DHT22;19226;51.600;8.034;2023-06-22T15:18:40;25.60;99.90
32877;DHT22;19226;51.600;8.034;2023-06-22T15:21:25;25.70;99.90
32877;DHT22;19226;51.600;8.034;2023-06-22T15:24:10;25.70;99.90
32877;DHT22;19226;51.600;8.034;2023-06-22T15:26:55;25.70;99.90
32877;DHT22;19226;51.600;8.034;2023-06-22T15:29:39;25.70;99.90
32877;DHT22;19226;51.600;8.034;2023-06-22T15:32:24;25.60;99.90
32877;DHT22;19226;51.600;8.034;2023-06-22T15:35:09;25.60;99.90
32877;DHT22;19226;51.600;8.034;2023-06-22T15:37:53;25.50;99.90
32877;DHT22;19226;51.600;8.034;2023-06-22T15:40:37;25.40;99.90
32877;DHT22;19226;51.600;8.034;2023-06-22T15:43:22;25.30;99.90
32877;DHT22;19226;51.600;8.034;2023-06-22T15:46:07;25.30;99.90
32877;DHT22;19226;51.600;8.034;2023-06-22T15:48:51;25.30;99.90
32877;DHT22;19226;51.600;8.034;2023-06-22T15:51:36;25.30;99.90
32877;DHT22;19226;51.600;8.034;2023-06-22T15:54:21;25.20;99.90
32877;DHT22;19226;51.600;8.034;2023-06-22T15:57:05;25.10;99.90
32877;DHT22;19226;51.600;8.034;2023-06-22T15:59:50;25.10;99.90
32877;DHT22;19226;51.600;8.034;2023-06-22T16:02:35;25.00;99.90
32877;DHT22;19226;51.600;8.034;2023-06-22T16:05:20;25.00;99.90
32877;DHT22;19226;51.600;8.034;2023-06-22T16:08:09;24.90;99.90
32877;DHT22;19226;51.600;8.034;2023-06-22T16:10:55;24.80;99.90
32877;DHT22;19226;51.600;8.034;2023-06-22T16:13:40;24.80;99.90
32877;DHT22;19226;51.600;8.034;2023-06-22T16:16:24;24.70;99.90
32877;DHT22;19226;51.600;8.034;2023-06-22T16:19:09;24.70;99.90
32877;DHT22;19226;51.600;8.034;2023-06-22T16:21:54;24.60;99.90
32877;DHT22;19226;51.600;8.034;2023-06-22T16:24:39;24.50;99.90
32877;DHT22;19226;51.600;8.034;2023-06-22T16:27:24;24.50;99.90
32877;DHT22;19226;51.600;8.034;2023-06-22T16:30:08;24.30;99.90
32877;DHT22;19226;51.600;8.034;2023-06-22T16:32:55;24.30;99.90
32877;DHT22;19226;51.600;8.034;2023-06-22T16:35:42;24.30;99.90
32877;DHT22;19226;51.600;8.034;2023-06-22T16:38:28;24.10;99.90
32877;DHT22;19226;51.600;8.034;2023-06-22T16:41:14;24.00;99.90
32877;DHT22;19226;51.600;8.034;2023-06-22T16:43:58;23.80;99.90
32877;DHT22;19226;51.600;8.034;2023-06-22T16:46:49;23.70;99.90
32877;DHT22;19226;51.600;8.034;2023-06-22T16:49:33;23.80;99.90
32877;DHT22;19226;51.600;8.034;2023-06-22T16:52:19;23.90;99.90
32877;DHT22;19226;51.600;8.034;2023-06-22T16:55:09;23.90;99.90
32877;DHT22;19226;51.600;8.034;2023-06-22T16:57:54;23.80;99.90
32877;DHT22;19226;51.600;8.034;2023-06-22T17:00:40;23.70;99.90
32877;DHT22;19226;51.600;8.034;2023-06-22T17:03:29;23.70;99.90
32877;DHT22;19226;51.600;8.034;2023-06-22T17:06:14;23.50;99.90
32877;DHT22;19226;51.600;8.034;2023-06-22T17:09:04;23.40;99.90
32877;DHT22;19226;51.600;8.034;2023-06-22T17:11:52;23.20;99.90
32877;DHT22;19226;51.600;8.034;2023-06-22T17:14:42;23.00;99.90
32877;DHT22;19226;51.600;8.034;2023-06-22T17:17:29;22.80;99.90
32877;DHT22;19226;51.600;8.034;2023-06-22T17:20:14;22.60;99.90
32877;DHT22;19226;51.600;8.034;2023-06-22T17:22:59;22.40;99.90
32877;DHT22;19226;51.600;8.034;2023-06-22T17:25:45;22.20;99.90
32877;DHT22;19226;51.600;8.034;2023-06-22T17:28:53;22.10;99.90